Time;durP1;ratioP1;P1;durP2;ratioP2;P2;SDS_P1;SDS_P2;PMS_P1;PMS_P2;Temp;Humidity;BMP_temperature;BMP_pressure;BME280_temperature;BME280_humidity;BME280_pressure;Samples;Min_cycle;Max_cycle;Signal;HPM_P1;HPM_P2
2024/01/15 00:01:06;;;;;;;28.30;10.20;;;;;;;;;;5034096;28;20090;-93
2024/01/15 00:03:31;;;;;;;28.08;10.13;;;;;;;;;;5033182;28;20037;-93
2024/01/15 00:05:57;;;;;;;31.73;11.07;;;;;;;;;;5034441;28;20043;-93
2024/01/15 00:08:22;;;;;;;30.07;11.10;;;;;;;;;;5032848;28;20091;-93
2024/01/15 00:10:47;;;;;;;37.53;12.73;;;;;;;;;;5033071;28;20044;-92
2024/01/15 00:13:13;;;;;;;36.67;12.60;;;;;;;;;;5030342;28;20025;-93
2024/01/15 00:15:39;;;;;;;38.05;13.30;;;;;;;;;;5033106;28;20022;-92
2024/01/15 00:18:04;;;;;;;39.37;13.13;;;;;;;;;;5031402;28;20028;-93
2024/01/15 00:20:29;;;;;;;34.70;13.53;;;;;;;;;;5032515;28;20025;-93
2024/01/15 00:22:54;;;;;;;45.17;15.70;;;;;;;;;;5032774;28;20076;-93
2024/01/15 00:25:20;;;;;;;41.07;14.07;;;;;;;;;;5032325;28;20018;-93
2024/01/15 00:27:45;;;;;;;40.47;14.10;;;;;;;;;;5033446;28;20046;-93
2024/01/15 00:30:10;;;;;;;43.47;13.60;;;;;;;;;;5031602;28;20905;-93
2024/01/15 00:32:35;;;;;;;36.13;12.98;;;;;;;;;;5031386;28;20032;-92
2024/01/15 00:35:00;;;;;;;41.40;13.30;;;;;;;;;;5032657;28;20088;-93
2024/01/15 00:37:26;;;;;;;42.93;13.50;;;;;;;;;;5032982;28;20025;-93
2024/01/15 00:39:51;;;;;;;39.43;12.47;;;;;;;;;;5032940;28;20026;-92
2024/01/15 00:42:16;;;;;;;31.93;11.63;;;;;;;;;;5022382;28;20029;-93
2024/01/15 00:44:42;;;;;;;39.67;12.27;;;;;;;;;;5033029;28;20021;-93
2024/01/15 00:47:07;;;;;;;36.73;11.27;;;;;;;;;;5032769;28;20128;-93
2024/01/15 00:49:32;;;;;;;40.70;12.40;;;;;;;;;;5029745;28;20033;-93
2024/01/15 00:51:57;;;;;;;34.93;11.00;;;;;;;;;;5012546;28;20367;-93
2024/01/15 00:54:24;;;;;;;33.10;10.40;;;;;;;;;;5014407;28;20043;-93
2024/01/15 00:56:49;;;;;;;33.95;10.40;;;;;;;;;;5025228;28;20118;-93
2024/01/15 00:59:14;;;;;;;32.30;10.43;;;;;;;;;;5031457;28;20061;-93
2024/01/15 01:01:42;;;;;;;27.97;8.37;;;;;;;;;;5033491;28;20025;-93
2024/01/15 01:04:07;;;;;;;26.10;7.70;;;;;;;;;;5034005;28;20109;-92
2024/01/15 01:06:33;;;;;;;30.17;8.80;;;;;;;;;;5035208;28;20101;-94
2024/01/15 01:08:59;;;;;;;20.33;5.50;;;;;;;;;;5031178;28;20026;-94
2024/01/15 01:11:24;;;;;;;20.23;5.23;;;;;;;;;;5052610;28;20029;-93
2024/01/15 01:13:49;;;;;;;20.33;4.53;;;;;;;;;;5032799;28;20448;-91
2024/01/15 01:16:14;;;;;;;12.00;3.43;;;;;;;;;;5025930;28;20033;-92
2024/01/15 01:18:39;;;;;;;10.53;3.30;;;;;;;;;;5029260;28;20037;-92
2024/01/15 01:21:04;;;;;;;18.60;2.90;;;;;;;;;;5018561;28;20029;-92
2024/01/15 01:23:30;;;;;;;9.73;2.80;;;;;;;;;;5025322;28;20032;-93
2024/01/15 01:25:56;;;;;;;12.17;2.30;;;;;;;;;;5033311;28;20017;-93
2024/01/15 01:28:23;;;;;;;7.55;1.67;;;;;;;;;;5031730;28;20036;-93
2024/01/15 01:30:50;;;;;;;8.07;2.00;;;;;;;;;;5031928;28;20021;-93
2024/01/15 01:33:15;;;;;;;7.07;1.40;;;;;;;;;;5028943;28;20029;-93
2024/01/15 01:35:40;;;;;;;5.60;1.33;;;;;;;;;;5030829;28;20009;-94
2024/01/15 01:38:05;;;;;;;10.50;1.60;;;;;;;;;;5043031;28;20020;-92
2024/01/15 01:40:32;;;;;;;4.87;1.30;;;;;;;;;;5036338;28;20021;-92
2024/01/15 01:42:57;;;;;;;5.15;1.13;;;;;;;;;;5040689;28;20072;-92
2024/01/15 01:45:22;;;;;;;8.83;1.40;;;;;;;;;;5038468;28;20026;-93
2024/01/15 01:47:48;;;;;;;6.63;1.20;;;;;;;;;;5043449;28;20170;-92
2024/01/15 01:50:14;;;;;;;6.80;1.20;;;;;;;;;;5040078;28;20432;-92
2024/01/15 01:52:39;;;;;;;8.00;1.35;;;;;;;;;;5042979;28;20024;-92
2024/01/15 01:55:06;;;;;;;6.47;1.37;;;;;;;;;;5040871;28;20029;-91
2024/01/15 01:57:32;;;;;;;12.25;1.65;;;;;;;;;;5041227;28;20021;-91
2024/01/15 01:59:58;;;;;;;5.90;1.58;;;;;;;;;;5031302;28;20030;-92
2024/01/15 02:02:23;;;;;;;6.03;1.30;;;;;;;;;;5015499;28;20017;-92
2024/01/15 02:04:49;;;;;;;7.67;1.30;;;;;;;;;;5013728;28;20028;-93
2024/01/15 02:07:17;;;;;;;6.90;1.30;;;;;;;;;;5021115;28;20017;-92
2024/01/15 02:09:42;;;;;;;6.00;1.40;;;;;;;;;;5024930;28;20029;-93
2024/01/15 02:12:09;;;;;;;6.13;1.20;;;;;;;;;;5032122;28;20292;-93
2024/01/15 02:14:34;;;;;;;9.70;1.23;;;;;;;;;;5033052;28;20483;-91
2024/01/15 02:16:59;;;;;;;5.80;1.67;;;;;;;;;;5026668;28;20347;-92
2024/01/15 02:19:25;;;;;;;7.43;1.30;;;;;;;;;;5025352;28;20059;-95
2024/01/15 02:21:50;;;;;;;3.70;1.17;;;;;;;;;;5020880;28;20109;-92
2024/01/15 02:24:15;;;;;;;7.53;1.30;;;;;;;;;;5023301;28;20025;-91
2024/01/15 02:26:42;;;;;;;6.37;1.30;;;;;;;;;;5023129;28;20507;-91
2024/01/15 02:29:08;;;;;;;4.85;0.88;;;;;;;;;;5027922;28;20644;-91
2024/01/15 02:31:34;;;;;;;4.43;1.42;;;;;;;;;;5032898;28;20021;-92
2024/01/15 02:33:59;;;;;;;6.47;0.90;;;;;;;;;;5042952;28;20017;-91
2024/01/15 02:36:25;;;;;;;12.27;1.33;;;;;;;;;;5041358;28;20099;-92
2024/01/15 02:38:50;;;;;;;8.13;1.37;;;;;;;;;;5037601;28;20040;-93
2024/01/15 02:41:15;;;;;;;11.93;1.20;;;;;;;;;;5020458;28;20018;-93
2024/01/15 02:43:41;;;;;;;6.03;1.10;;;;;;;;;;5025921;28;20068;-95
2024/01/15 02:46:06;;;;;;;4.67;0.70;;;;;;;;;;5020190;28;20291;-93
2024/01/15 02:48:31;;;;;;;7.47;0.80;;;;;;;;;;5032065;28;20029;-93
2024/01/15 02:50:56;;;;;;;10.20;1.20;;;;;;;;;;5031072;28;20017;-93
2024/01/15 02:53:21;;;;;;;7.43;0.80;;;;;;;;;;5029981;28;20018;-93
2024/01/15 02:55:47;;;;;;;11.00;0.70;;;;;;;;;;5032347;28;20057;-92
2024/01/15 02:58:14;;;;;;;14.87;1.90;;;;;;;;;;5015781;28;20505;-92
2024/01/15 03:00:39;;;;;;;10.00;0.67;;;;;;;;;;5031373;28;20279;-93
2024/01/15 03:03:04;;;;;;;4.40;0.60;;;;;;;;;;5025388;28;20088;-92
2024/01/15 03:05:29;;;;;;;10.23;0.77;;;;;;;;;;5051422;28;20475;-91
2024/01/15 03:07:55;;;;;;;6.30;0.40;;;;;;;;;;5033139;28;20026;-93
2024/01/15 03:10:20;;;;;;;5.37;0.60;;;;;;;;;;5032724;28;20392;-93
2024/01/15 03:12:45;;;;;;;5.20;0.60;;;;;;;;;;5033139;28;20013;-93
2024/01/15 03:15:10;;;;;;;8.57;1.00;;;;;;;;;;5032500;28;20018;-91
2024/01/15 03:17:37;;;;;;;8.43;1.00;;;;;;;;;;5025193;28;20012;-92
2024/01/15 03:20:03;;;;;;;7.05;0.50;;;;;;;;;;5036004;28;20025;-95
2024/01/15 03:22:28;;;;;;;11.07;1.08;;;;;;;;;;5034656;28;20040;-95
2024/01/15 03:24:53;;;;;;;3.53;0.70;;;;;;;;;;5035465;28;20171;-95
2024/01/15 03:27:18;;;;;;;9.87;0.60;;;;;;;;;;5036748;28;20127;-91
2024/01/15 03:29:43;;;;;;;7.33;1.20;;;;;;;;;;5028903;28;20477;-92
2024/01/15 03:32:09;;;;;;;9.97;0.63;;;;;;;;;;5032494;28;20433;-92
2024/01/15 03:34:34;;;;;;;6.43;0.97;;;;;;;;;;5036092;28;20057;-92
2024/01/15 03:36:59;;;;;;;14.50;1.70;;;;;;;;;;5037460;28;20021;-93
2024/01/15 03:39:24;;;;;;;5.97;0.90;;;;;;;;;;5036036;28;20025;-92
2024/01/15 03:41:50;;;;;;;9.77;1.00;;;;;;;;;;5035534;28;20041;-93
2024/01/15 03:44:15;;;;;;;9.07;1.13;;;;;;;;;;5036793;28;20021;-92
2024/01/15 03:46:40;;;;;;;16.27;1.00;;;;;;;;;;5037102;28;20034;-92
2024/01/15 03:49:06;;;;;;;9.13;1.10;;;;;;;;;;5037200;28;20381;-92
2024/01/15 03:51:31;;;;;;;14.10;1.53;;;;;;;;;;5036244;28;20063;-93
2024/01/15 03:53:56;;;;;;;11.93;1.30;;;;;;;;;;5037535;28;20021;-93
2024/01/15 03:56:21;;;;;;;12.53;1.00;;;;;;;;;;5036720;28;20017;-92
2024/01/15 03:58:46;;;;;;;10.93;1.37;;;;;;;;;;5036420;28;20025;-93
2024/01/15 04:01:12;;;;;;;10.60;0.97;;;;;;;;;;5036724;28;20017;-92
2024/01/15 04:03:37;;;;;;;8.27;1.40;;;;;;;;;;5036244;28;20025;-92
2024/01/15 04:06:03;;;;;;;19.47;1.27;;;;;;;;;;5042588;28;20010;-92
2024/01/15 04:08:28;;;;;;;18.37;2.00;;;;;;;;;;5039245;28;20037;-92
2024/01/15 04:10:53;;;;;;;8.00;1.50;;;;;;;;;;5053699;28;20036;-92
2024/01/15 04:13:18;;;;;;;6.13;0.95;;;;;;;;;;5029071;28;20049;-92
2024/01/15 04:15:43;;;;;;;5.63;0.90;;;;;;;;;;5034105;28;20017;-92
2024/01/15 04:18:09;;;;;;;8.93;1.47;;;;;;;;;;5035643;28;20365;-93
2024/01/15 04:20:34;;;;;;;11.43;1.10;;;;;;;;;;5036755;28;20022;-93
2024/01/15 04:22:59;;;;;;;8.57;0.80;;;;;;;;;;5038842;28;20021;-92
2024/01/15 04:25:24;;;;;;;12.23;1.07;;;;;;;;;;5039498;28;20017;-92
2024/01/15 04:27:50;;;;;;;17.20;1.70;;;;;;;;;;5041279;28;20056;-92
2024/01/15 04:30:15;;;;;;;12.23;1.63;;;;;;;;;;5029293;28;20109;-92
2024/01/15 04:32:40;;;;;;;16.73;1.10;;;;;;;;;;5025168;28;20029;-93
2024/01/15 04:35:05;;;;;;;7.80;1.10;;;;;;;;;;5036029;28;20040;-91
2024/01/15 04:37:30;;;;;;;10.63;1.23;;;;;;;;;;5034594;28;20042;-92
2024/01/15 04:39:57;;;;;;;10.60;1.33;;;;;;;;;;5029033;28;20026;-93
2024/01/15 04:42:22;;;;;;;11.43;0.65;;;;;;;;;;5027419;28;20075;-92
2024/01/15 04:44:47;;;;;;;5.67;0.77;;;;;;;;;;5033686;28;20017;-91
2024/01/15 04:47:13;;;;;;;6.63;0.93;;;;;;;;;;5034745;28;20264;-91
2024/01/15 04:49:38;;;;;;;8.03;1.00;;;;;;;;;;5038740;28;20128;-94
2024/01/15 04:52:03;;;;;;;10.67;1.30;;;;;;;;;;5043661;28;20036;-93
2024/01/15 04:54:28;;;;;;;5.40;1.07;;;;;;;;;;5038791;28;20018;-92
2024/01/15 04:56:54;;;;;;;7.13;0.95;;;;;;;;;;5036934;28;20021;-91
2024/01/15 04:59:19;;;;;;;4.40;0.73;;;;;;;;;;5035281;28;20050;-93
2024/01/15 05:01:44;;;;;;;2.80;1.00;;;;;;;;;;5026145;28;20064;-93
2024/01/15 05:04:09;;;;;;;6.07;0.70;;;;;;;;;;5019291;28;20018;-92
2024/01/15 05:06:34;;;;;;;5.37;0.87;;;;;;;;;;5035364;28;20468;-92
2024/01/15 05:08:59;;;;;;;11.27;0.80;;;;;;;;;;5033862;28;20120;-92
2024/01/15 05:11:25;;;;;;;2.77;0.77;;;;;;;;;;5033982;28;20017;-93
2024/01/15 05:13:50;;;;;;;1.00;0.40;;;;;;;;;;5030920;28;20160;-93
2024/01/15 05:16:15;;;;;;;3.47;0.83;;;;;;;;;;5034647;28;20406;-92
2024/01/15 05:18:40;;;;;;;1.53;0.80;;;;;;;;;;5033671;28;20029;-92
2024/01/15 05:21:06;;;;;;;4.17;0.70;;;;;;;;;;5033781;28;20049;-92
2024/01/15 05:23:31;;;;;;;2.20;0.70;;;;;;;;;;5031358;28;20021;-93
2024/01/15 05:25:56;;;;;;;4.43;0.80;;;;;;;;;;5015640;28;20105;-92
2024/01/15 05:28:22;;;;;;;5.70;0.60;;;;;;;;;;5029124;28;20037;-91
2024/01/15 05:30:47;;;;;;;2.93;0.40;;;;;;;;;;5033191;28;20044;-93
2024/01/15 05:33:12;;;;;;;2.63;0.60;;;;;;;;;;5026284;28;20535;-92
2024/01/15 05:35:37;;;;;;;1.03;0.60;;;;;;;;;;5016451;28;20022;-92
2024/01/15 05:38:03;;;;;;;3.60;0.70;;;;;;;;;;5022578;28;20076;-93
2024/01/15 05:40:28;;;;;;;4.40;0.60;;;;;;;;;;5038364;28;20554;-94
2024/01/15 05:42:53;;;;;;;3.27;0.67;;;;;;;;;;5040124;28;20023;-93
2024/01/15 05:45:18;;;;;;;1.97;0.80;;;;;;;;;;5041939;28;20101;-93
2024/01/15 05:47:43;;;;;;;4.80;1.07;;;;;;;;;;5035252;28;20021;-94
2024/01/15 05:50:09;;;;;;;7.97;1.13;;;;;;;;;;5035807;28;20053;-93
2024/01/15 05:52:34;;;;;;;4.77;1.17;;;;;;;;;;5033909;28;20028;-93
2024/01/15 05:54:59;;;;;;;6.37;1.20;;;;;;;;;;5035119;28;20025;-92
2024/01/15 05:57:24;;;;;;;12.87;1.80;;;;;;;;;;5044440;28;20030;-91
2024/01/15 05:59:50;;;;;;;5.60;1.33;;;;;;;;;;5055296;28;20022;-92
2024/01/15 06:02:15;;;;;;;4.63;1.00;;;;;;;;;;5055489;28;20001;-91
2024/01/15 06:04:40;;;;;;;7.93;1.20;;;;;;;;;;5051301;28;20230;-91
2024/01/15 06:07:05;;;;;;;7.13;1.40;;;;;;;;;;5053093;28;20041;-91
2024/01/15 06:09:31;;;;;;;4.53;1.20;;;;;;;;;;5055030;28;20029;-91
2024/01/15 06:11:56;;;;;;;5.43;1.20;;;;;;;;;;5032675;28;20092;-90
2024/01/15 06:14:21;;;;;;;6.27;0.93;;;;;;;;;;5038475;28;20108;-91
2024/01/15 06:16:47;;;;;;;5.90;1.20;;;;;;;;;;5037266;28;20155;-91
2024/01/15 06:19:12;;;;;;;8.03;1.40;;;;;;;;;;5030003;28;20104;-86
2024/01/15 06:21:37;;;;;;;4.90;1.10;;;;;;;;;;5014676;28;20076;-86
2024/01/15 06:24:03;;;;;;;9.40;1.40;;;;;;;;;;5026485;28;20025;-85
2024/01/15 06:26:28;;;;;;;8.07;1.40;;;;;;;;;;5029940;28;20029;-86
2024/01/15 06:28:53;;;;;;;9.77;1.73;;;;;;;;;;5029659;28;20092;-86
2024/01/15 06:31:18;;;;;;;4.63;1.20;;;;;;;;;;5028678;28;20057;-86
2024/01/15 06:33:47;;;;;;;7.83;1.20;;;;;;;;;;5028718;28;20489;-86
2024/01/15 06:36:12;;;;;;;6.28;1.48;;;;;;;;;;5028446;28;20021;-85
2024/01/15 06:38:37;;;;;;;4.97;1.60;;;;;;;;;;5037289;28;20018;-86
2024/01/15 06:41:02;;;;;;;10.33;1.83;;;;;;;;;;5027820;28;20021;-85
2024/01/15 06:43:28;;;;;;;10.73;1.73;;;;;;;;;;5020669;28;20026;-85
2024/01/15 06:45:53;;;;;;;7.15;1.50;;;;;;;;;;5031378;28;20494;-85
2024/01/15 06:48:18;;;;;;;6.10;1.30;;;;;;;;;;5039753;28;20020;-85
2024/01/15 06:50:43;;;;;;;4.23;1.10;;;;;;;;;;5031086;28;20024;-85
2024/01/15 06:53:09;;;;;;;2.40;1.07;;;;;;;;;;5029468;28;20590;-86
2024/01/15 06:55:34;;;;;;;3.60;1.60;;;;;;;;;;5025837;28;20017;-87
2024/01/15 06:57:59;;;;;;;5.53;1.40;;;;;;;;;;5020254;28;20037;-86
2024/01/15 07:00:24;;;;;;;1.93;1.10;;;;;;;;;;5031146;28;20040;-90
2024/01/15 07:02:49;;;;;;;1.93;1.10;;;;;;;;;;5028530;28;20034;-87
2024/01/15 07:05:15;;;;;;;3.43;1.40;;;;;;;;;;5030222;28;20447;-87
2024/01/15 07:07:40;;;;;;;3.83;1.50;;;;;;;;;;5028779;28;20017;-85
2024/01/15 07:10:06;;;;;;;5.80;1.10;;;;;;;;;;5027204;28;20427;-86
2024/01/15 07:12:31;;;;;;;3.20;1.20;;;;;;;;;;5028130;28;20097;-86
2024/01/15 07:14:56;;;;;;;3.20;1.30;;;;;;;;;;5028416;28;20032;-86
2024/01/15 07:17:22;;;;;;;2.83;1.33;;;;;;;;;;5024791;28;20474;-84
2024/01/15 07:19:47;;;;;;;3.53;1.33;;;;;;;;;;5031372;28;20028;-84
2024/01/15 07:22:12;;;;;;;3.23;1.70;;;;;;;;;;5032506;28;20033;-84
2024/01/15 07:24:37;;;;;;;2.10;1.50;;;;;;;;;;5020108;28;20025;-87
2024/01/15 07:27:04;;;;;;;5.13;2.10;;;;;;;;;;5013739;28;20593;-85
2024/01/15 07:29:29;;;;;;;2.58;1.42;;;;;;;;;;5020470;28;20627;-86
2024/01/15 07:31:54;;;;;;;8.03;2.13;;;;;;;;;;5031101;28;20037;-87
2024/01/15 07:34:20;;;;;;;5.97;2.10;;;;;;;;;;5025758;28;20028;-86
2024/01/15 07:36:45;;;;;;;7.33;2.13;;;;;;;;;;5031911;28;20085;-89
2024/01/15 07:39:11;;;;;;;12.05;2.20;;;;;;;;;;5033516;28;20116;-89
2024/01/15 07:41:36;;;;;;;14.20;2.73;;;;;;;;;;5022527;28;20021;-86
2024/01/15 07:44:01;;;;;;;5.73;2.37;;;;;;;;;;5032937;28;20599;-87
2024/01/15 07:46:27;;;;;;;17.33;5.87;;;;;;;;;;5033141;28;20468;-88
2024/01/15 07:48:56;;;;;;;14.13;3.63;;;;;;;;;;5033240;28;20295;-87
2024/01/15 07:51:21;;;;;;;8.20;3.60;;;;;;;;;;5032118;28;20818;-87
2024/01/15 07:53:46;;;;;;;8.70;3.55;;;;;;;;;;5032015;28;20027;-86
2024/01/15 07:56:12;;;;;;;6.50;4.13;;;;;;;;;;5031884;28;20397;-89
2024/01/15 07:58:37;;;;;;;9.47;4.47;;;;;;;;;;5033908;28;20010;-88
2024/01/15 08:01:02;;;;;;;8.70;4.93;;;;;;;;;;5030790;28;20409;-89
2024/01/15 08:03:27;;;;;;;17.83;5.40;;;;;;;;;;5033639;28;20025;-92
2024/01/15 08:05:54;;;;;;;12.97;5.43;;;;;;;;;;5032565;28;20029;-88
2024/01/15 08:08:21;;;;;;;9.68;3.63;;;;;;;;;;5030223;28;20473;-89
2024/01/15 08:10:46;;;;;;;7.07;3.72;;;;;;;;;;5030885;28;20017;-90
2024/01/15 08:13:11;;;;;;;9.57;4.40;;;;;;;;;;5026538;28;20036;-88
2024/01/15 08:15:37;;;;;;;11.83;3.93;;;;;;;;;;5040774;28;20021;-89
2024/01/15 08:18:02;;;;;;;9.23;5.00;;;;;;;;;;5033996;28;20107;-89
2024/01/15 08:20:27;;;;;;;10.07;6.13;;;;;;;;;;5031668;28;20021;-94
2024/01/15 08:22:53;;;;;;;6.73;4.80;;;;;;;;;;5030586;28;20477;-88
2024/01/15 08:25:18;;;;;;;10.00;4.83;;;;;;;;;;5023619;28;20564;-88
2024/01/15 08:27:43;;;;;;;8.87;4.97;;;;;;;;;;5025607;28;20025;-88
2024/01/15 08:30:09;;;;;;;9.17;4.83;;;;;;;;;;5032435;28;20029;-88
2024/01/15 08:32:40;;;;;;;12.85;5.20;;;;;;;;;;5034300;28;20468;-89
2024/01/15 08:35:06;;;;;;;7.43;4.57;;;;;;;;;;5033926;28;20025;-90
2024/01/15 08:37:31;;;;;;;8.65;4.43;;;;;;;;;;5034942;28;20542;-89
2024/01/15 08:39:57;;;;;;;14.80;5.70;;;;;;;;;;5034486;28;20499;-90
2024/01/15 08:42:22;;;;;;;8.45;5.07;;;;;;;;;;5031768;28;20029;-89
2024/01/15 08:44:48;;;;;;;11.00;4.97;;;;;;;;;;5044481;28;20017;-89
2024/01/15 08:47:13;;;;;;;8.33;4.73;;;;;;;;;;5033375;28;20072;-89
2024/01/15 08:49:39;;;;;;;12.20;5.27;;;;;;;;;;5030764;28;20109;-88
2024/01/15 08:52:04;;;;;;;9.90;5.25;;;;;;;;;;5020370;28;20017;-89
2024/01/15 08:54:30;;;;;;;11.93;5.53;;;;;;;;;;5032836;28;20036;-87
2024/01/15 08:56:55;;;;;;;15.57;5.10;;;;;;;;;;5042531;28;20020;-87
2024/01/15 08:59:24;;;;;;;11.00;5.00;;;;;;;;;;5031893;28;20916;-88
2024/01/15 09:01:49;;;;;;;8.88;4.43;;;;;;;;;;5031776;28;20027;-89
2024/01/15 09:04:15;;;;;;;7.37;4.00;;;;;;;;;;5033164;28;20021;-88
2024/01/15 09:06:44;;;;;;;9.57;3.87;;;;;;;;;;5031988;28;20021;-90
2024/01/15 09:09:10;;;;;;;7.93;2.90;;;;;;;;;;5032906;28;20038;-90
2024/01/15 09:11:35;;;;;;;9.25;2.67;;;;;;;;;;5032928;28;20037;-90
2024/01/15 09:14:00;;;;;;;3.20;1.90;;;;;;;;;;5032150;28;20017;-89
2024/01/15 09:16:26;;;;;;;8.10;2.03;;;;;;;;;;5032694;28;20377;-90
2024/01/15 09:18:51;;;;;;;4.87;1.63;;;;;;;;;;5031632;28;20025;-90
2024/01/15 09:21:16;;;;;;;3.20;1.17;;;;;;;;;;5032066;28;20601;-89
2024/01/15 09:23:41;;;;;;;4.30;1.30;;;;;;;;;;5031749;28;20041;-89
2024/01/15 09:26:08;;;;;;;6.50;0.90;;;;;;;;;;5033483;28;20028;-89
2024/01/15 09:28:33;;;;;;;8.18;1.48;;;;;;;;;;5032922;28;20028;-90
2024/01/15 09:30:58;;;;;;;5.17;0.80;;;;;;;;;;5032979;28;20018;-90
2024/01/15 09:33:23;;;;;;;10.03;0.90;;;;;;;;;;5032913;28;20049;-90
2024/01/15 09:35:49;;;;;;;3.17;0.50;;;;;;;;;;5032328;28;20073;-90
2024/01/15 09:38:15;;;;;;;4.57;0.60;;;;;;;;;;5031706;28;20037;-89
2024/01/15 09:40:43;;;;;;;4.17;0.60;;;;;;;;;;5032195;28;20024;-89
2024/01/15 09:43:08;;;;;;;3.42;0.70;;;;;;;;;;5032678;28;20029;-89
2024/01/15 09:45:33;;;;;;;6.93;0.70;;;;;;;;;;5031773;28;20063;-89
2024/01/15 09:47:58;;;;;;;5.50;0.67;;;;;;;;;;5033394;28;20027;-90
2024/01/15 09:50:24;;;;;;;2.33;0.80;;;;;;;;;;5031352;28;20031;-89
2024/01/15 09:52:49;;;;;;;4.97;1.00;;;;;;;;;;5032364;28;20056;-89
2024/01/15 09:55:16;;;;;;;2.72;0.80;;;;;;;;;;5033210;28;20025;-90
2024/01/15 09:57:41;;;;;;;2.83;1.08;;;;;;;;;;5031035;28;20629;-90
2024/01/15 10:00:07;;;;;;;7.20;1.10;;;;;;;;;;5032918;28;20124;-89
2024/01/15 10:02:32;;;;;;;5.75;1.23;;;;;;;;;;5032614;28;20033;-90
2024/01/15 10:04:58;;;;;;;4.87;1.17;;;;;;;;;;5030604;28;20160;-90
2024/01/15 10:07:23;;;;;;;5.10;1.40;;;;;;;;;;5031854;28;20057;-90
2024/01/15 10:09:49;;;;;;;4.80;1.10;;;;;;;;;;5032833;28;20469;-90
2024/01/15 10:12:14;;;;;;;4.77;1.37;;;;;;;;;;5026556;28;20029;-90
2024/01/15 10:14:40;;;;;;;6.60;1.50;;;;;;;;;;5029553;28;20025;-91
2024/01/15 10:17:11;;;;;;;8.13;1.48;;;;;;;;;;5032513;28;20024;-90
2024/01/15 10:19:37;;;;;;;5.75;1.45;;;;;;;;;;5030546;28;20017;-90
2024/01/15 10:22:03;;;;;;;8.43;1.50;;;;;;;;;;5033566;28;20009;-90
2024/01/15 10:24:28;;;;;;;4.67;1.30;;;;;;;;;;5027702;28;20109;-91
2024/01/15 10:27:04;;;;;;;9.05;1.70;;;;;;;;;;5015440;28;20014;-90
2024/01/15 10:29:36;;;;;;;7.27;1.90;;;;;;;;;;5018576;28;20397;-91
2024/01/15 10:32:02;;;;;;;5.80;1.70;;;;;;;;;;5038237;22;20317;-92
2024/01/15 10:34:52;;;;;;;8.32;2.90;;;;;;;;;;5018969;28;20477;-92
2024/01/15 10:37:18;;;;;;;10.63;2.00;;;;;;;;;;5041550;28;20028;-90
2024/01/15 10:39:44;;;;;;;5.33;2.27;;;;;;;;;;5039740;28;20017;-89
2024/01/15 10:42:09;;;;;;;10.38;2.22;;;;;;;;;;5031998;28;20018;-90
2024/01/15 10:44:35;;;;;;;7.03;2.53;;;;;;;;;;5026238;28;20026;-91
2024/01/15 10:47:00;;;;;;;11.40;3.10;;;;;;;;;;5025516;28;20030;-91
2024/01/15 10:49:26;;;;;;;9.90;3.13;;;;;;;;;;5005565;28;20033;-88
2024/01/15 10:51:53;;;;;;;7.47;2.20;;;;;;;;;;5009915;28;20018;-89
2024/01/15 10:54:19;;;;;;;11.27;2.22;;;;;;;;;;5012036;28;20017;-89
2024/01/15 10:56:45;;;;;;;5.67;1.50;;;;;;;;;;5015242;28;20013;-87
2024/01/15 10:59:11;;;;;;;5.05;1.17;;;;;;;;;;5023916;28;20033;-87
2024/01/15 11:01:37;;;;;;;8.27;1.60;;;;;;;;;;5023004;28;20029;-87
2024/01/15 11:04:02;;;;;;;7.30;1.23;;;;;;;;;;5015079;28;20026;-88
2024/01/15 11:06:28;;;;;;;4.03;1.60;;;;;;;;;;5006850;28;20022;-85
2024/01/15 11:08:54;;;;;;;2.60;1.15;;;;;;;;;;5009815;28;20026;-87
2024/01/15 11:11:20;;;;;;;6.53;1.53;;;;;;;;;;5006012;28;20081;-87
2024/01/15 11:13:51;;;;;;;6.72;1.50;;;;;;;;;;5012025;28;20049;-88
2024/01/15 11:16:17;;;;;;;4.97;1.33;;;;;;;;;;5030196;28;20021;-89
2024/01/15 11:18:43;;;;;;;4.88;1.15;;;;;;;;;;5033168;28;20532;-89
2024/01/15 11:21:17;;;;;;;2.75;1.10;;;;;;;;;;5019136;28;21677;-89
2024/01/15 11:23:47;;;;;;;6.17;1.50;;;;;;;;;;5023773;28;20026;-88
2024/01/15 11:26:27;;;;;;;4.60;1.15;;;;;;;;;;5020138;28;20033;-90
2024/01/15 11:28:54;;;;;;;4.60;1.00;;;;;;;;;;5026642;28;20513;-90
2024/01/15 11:31:19;;;;;;;4.00;1.23;;;;;;;;;;5029623;28;20033;-89
2024/01/15 11:33:49;;;;;;;3.33;1.13;;;;;;;;;;5029295;28;20018;-90
2024/01/15 11:36:14;;;;;;;7.28;1.00;;;;;;;;;;5019071;28;20102;-91
2024/01/15 11:38:39;;;;;;;2.87;1.10;;;;;;;;;;5026704;28;20041;-87
2024/01/15 11:41:13;;;;;;;4.87;0.87;;;;;;;;;;5012075;28;20099;-88
2024/01/15 11:43:38;;;;;;;3.60;0.80;;;;;;;;;;5018270;28;20025;-89
2024/01/15 11:46:07;;;;;;;4.80;1.27;;;;;;;;;;5026718;28;20033;-91
2024/01/15 11:48:41;;;;;;;1.97;0.67;;;;;;;;;;5012256;28;20036;-89
2024/01/15 11:51:07;;;;;;;1.13;0.70;;;;;;;;;;5009463;28;20037;-88
2024/01/15 11:53:35;;;;;;;2.33;0.80;;;;;;;;;;5010731;28;20109;-88
2024/01/15 11:56:01;;;;;;;0.98;0.50;;;;;;;;;;4997828;28;20109;-89
2024/01/15 11:58:27;;;;;;;1.70;1.00;;;;;;;;;;5005830;28;20018;-88
2024/01/15 12:00:52;;;;;;;3.83;1.30;;;;;;;;;;5015995;28;20393;-88
2024/01/15 12:03:20;;;;;;;2.90;1.37;;;;;;;;;;5017343;28;20381;-88
2024/01/15 12:05:45;;;;;;;1.77;1.38;;;;;;;;;;5003565;28;20089;-88
2024/01/15 12:08:10;;;;;;;2.90;1.47;;;;;;;;;;5014097;28;20096;-90
2024/01/15 12:10:37;;;;;;;2.78;1.40;;;;;;;;;;5027127;28;20021;-89
2024/01/15 12:13:09;;;;;;;3.57;1.63;;;;;;;;;;4994463;28;20360;-89
2024/01/15 12:15:34;;;;;;;3.28;1.40;;;;;;;;;;4993078;28;20023;-88
2024/01/15 12:18:02;;;;;;;5.88;1.38;;;;;;;;;;5027624;28;20423;-88
2024/01/15 12:20:28;;;;;;;2.67;1.25;;;;;;;;;;5031659;28;20028;-87
2024/01/15 12:22:53;;;;;;;1.80;1.50;;;;;;;;;;5031822;28;20029;-88
2024/01/15 12:25:18;;;;;;;4.93;1.57;;;;;;;;;;5012886;28;20010;-88
2024/01/15 12:27:44;;;;;;;5.17;1.20;;;;;;;;;;5027752;28;20431;-88
2024/01/15 12:30:12;;;;;;;3.95;1.70;;;;;;;;;;5033865;28;20065;-89
2024/01/15 12:32:38;;;;;;;2.78;1.40;;;;;;;;;;5040208;28;20022;-88
2024/01/15 12:38:14;;;;;;;3.13;1.63;;;;;;;;;;5051750;28;20079;-90
2024/01/15 12:40:39;;;;;;;2.80;1.97;;;;;;;;;;5054461;28;20279;-89
2024/01/15 12:43:08;;;;;;;5.07;1.90;;;;;;;;;;5057398;28;20509;-90
2024/01/15 12:45:35;;;;;;;3.30;1.77;;;;;;;;;;5054890;28;20017;-89
2024/01/15 12:48:00;;;;;;;5.03;2.10;;;;;;;;;;5026658;28;20021;-90
2024/01/15 12:50:27;;;;;;;5.67;2.10;;;;;;;;;;5042638;28;20036;-88
2024/01/15 12:52:52;;;;;;;7.00;2.33;;;;;;;;;;5052246;28;20017;-89
2024/01/15 12:55:17;;;;;;;3.87;2.57;;;;;;;;;;5052939;28;20078;-89
2024/01/15 12:57:59;;;;;;;;;;;;;;;;;;;;;
2024/01/15 13:00:31;;;;;;;4.90;2.08;;;;;;;;;;5049373;28;20047;-88
2024/01/15 13:03:13;;;;;;;8.90;2.25;;;;;;;;;;5053836;28;20033;-90
2024/01/15 13:05:48;;;;;;;2.75;2.05;;;;;;;;;;5054827;28;20435;-90
2024/01/15 13:08:14;;;;;;;6.57;2.03;;;;;;;;;;5066993;28;20452;-87
2024/01/15 13:10:39;;;;;;;8.27;2.05;;;;;;;;;;5069767;28;20039;-90
2024/01/15 13:13:05;;;;;;;3.77;1.83;;;;;;;;;;5054685;28;20103;-87
2024/01/15 13:15:31;;;;;;;5.07;1.87;;;;;;;;;;5058837;28;20020;-94
2024/01/15 13:17:56;;;;;;;5.05;1.73;;;;;;;;;;5059741;28;20427;-88
2024/01/15 13:20:21;;;;;;;3.63;1.60;;;;;;;;;;5056231;28;20060;-87
2024/01/15 13:22:47;;;;;;;3.35;1.45;;;;;;;;;;5051160;28;20020;-87
2024/01/15 13:25:12;;;;;;;3.70;1.90;;;;;;;;;;5058103;28;20103;-87
2024/01/15 13:27:37;;;;;;;6.40;1.60;;;;;;;;;;5051177;28;20026;-88
2024/01/15 13:30:07;;;;;;;4.37;1.60;;;;;;;;;;5065952;28;20033;-88
2024/01/15 13:32:32;;;;;;;4.35;1.70;;;;;;;;;;5063325;28;20012;-88
2024/01/15 13:34:58;;;;;;;1.73;1.60;;;;;;;;;;5052707;28;20392;-87
2024/01/15 13:37:24;;;;;;;3.13;1.93;;;;;;;;;;5052229;28;20028;-88
2024/01/15 13:39:49;;;;;;;3.13;1.80;;;;;;;;;;5043772;22;20060;-87
2024/01/15 13:42:15;;;;;;;2.60;1.83;;;;;;;;;;5006289;28;20022;-88
2024/01/15 13:44:41;;;;;;;3.78;2.03;;;;;;;;;;4977457;28;20123;-87
2024/01/15 13:47:06;;;;;;;4.33;2.20;;;;;;;;;;5010607;28;20018;-87
2024/01/15 13:49:33;;;;;;;7.67;1.87;;;;;;;;;;5003095;28;20425;-87
2024/01/15 13:51:59;;;;;;;3.92;1.63;;;;;;;;;;5011682;28;20340;-87
2024/01/15 13:54:24;;;;;;;5.07;2.37;;;;;;;;;;5011741;28;20101;-88
2024/01/15 13:56:49;;;;;;;2.27;1.50;;;;;;;;;;5011998;28;20022;-88
2024/01/15 13:59:15;;;;;;;3.22;1.67;;;;;;;;;;5012483;28;20025;-88
2024/01/15 14:01:40;;;;;;;6.87;2.23;;;;;;;;;;5012623;28;20497;-88
2024/01/15 14:04:05;;;;;;;4.87;2.27;;;;;;;;;;5012638;28;20042;-89
2024/01/15 14:06:30;;;;;;;6.07;2.40;;;;;;;;;;5012495;28;20426;-88
2024/01/15 14:08:55;;;;;;;3.23;2.30;;;;;;;;;;5012958;28;20036;-88
2024/01/15 14:11:21;;;;;;;5.00;2.77;;;;;;;;;;5015983;28;20029;-87
2024/01/15 14:13:47;;;;;;;8.37;2.87;;;;;;;;;;5024087;28;20018;-87
2024/01/15 14:16:12;;;;;;;7.25;2.47;;;;;;;;;;5033676;28;20021;-88
2024/01/15 14:18:38;;;;;;;4.73;2.47;;;;;;;;;;5007350;28;20018;-87
2024/01/15 14:21:03;;;;;;;6.43;2.50;;;;;;;;;;5013515;28;20017;-86
2024/01/15 14:23:28;;;;;;;7.10;3.03;;;;;;;;;;5000326;28;20420;-86
2024/01/15 14:25:54;;;;;;;4.87;3.17;;;;;;;;;;5016344;28;20026;-85
2024/01/15 14:28:19;;;;;;;6.47;2.67;;;;;;;;;;5011947;28;20409;-86
2024/01/15 14:30:44;;;;;;;4.83;2.67;;;;;;;;;;5018523;28;20096;-86
2024/01/15 14:33:09;;;;;;;9.00;2.90;;;;;;;;;;5017262;28;20018;-86
2024/01/15 14:35:34;;;;;;;8.20;3.13;;;;;;;;;;5010223;28;20120;-86